Time;durP1;ratioP1;P1;durP2;ratioP2;P2;SDS_P1;SDS_P2;PMS_P1;PMS_P2;Temp;Humidity;BMP_temperature;BMP_pressure;BME280_temperature;BME280_humidity;BME280_pressure;Samples;Min_cycle;Max_cycle;Signal;HPM_P1;HPM_P2
2022/12/20 00:01:22;;;;;;;10.00;1.60;;;22.40;72.90;;;;;;5079059;28;20403;-87
2022/12/20 00:03:50;;;;;;;6.00;1.40;;;22.50;72.20;;;;;;5071904;28;20467;-85
2022/12/20 00:06:18;;;;;;;6.82;1.50;;;22.60;72.50;;;;;;5069558;28;20874;-87
2022/12/20 00:08:46;;;;;;;9.57;1.77;;;22.60;71.50;;;;;;5069910;28;20378;-87
2022/12/20 00:11:13;;;;;;;4.70;1.48;;;22.60;71.70;;;;;;5080583;28;20856;-87
2022/12/20 00:13:40;;;;;;;8.30;1.70;;;22.70;71.20;;;;;;5074126;28;20382;-87
2022/12/20 00:16:16;;;;;;;6.53;1.73;;;23.20;70.60;;;;;;5055351;28;20397;-87
2022/12/20 00:18:44;;;;;;;5.70;1.52;;;23.60;69.60;;;;;;5054812;28;20401;-87
2022/12/20 00:21:14;;;;;;;5.60;1.30;;;24.00;67.50;;;;;;5054956;28;20384;-88
2022/12/20 00:23:41;;;;;;;6.93;1.50;;;24.10;66.70;;;;;;5072582;28;20372;-85
2022/12/20 00:26:17;;;;;;;5.47;1.42;;;24.10;64.20;;;;;;5072973;28;20382;-87
2022/12/20 00:28:44;;;;;;;3.60;1.20;;;24.30;63.90;;;;;;5072679;28;20381;-87
2022/12/20 00:31:14;;;;;;;5.88;1.45;;;24.30;63.40;;;;;;5085833;28;20376;-86
2022/12/20 00:33:44;;;;;;;4.88;1.30;;;24.50;62.60;;;;;;5072668;28;20382;-86
2022/12/20 00:36:11;;;;;;;3.88;1.40;;;24.90;61.20;;;;;;5072665;28;20410;-87
2022/12/20 00:38:38;;;;;;;3.85;1.00;;;25.10;59.40;;;;;;5072582;28;20418;-87
2022/12/20 00:41:11;;;;;;;4.20;1.25;;;25.30;58.60;;;;;;5072515;28;20461;-87
2022/12/20 00:43:38;;;;;;;4.97;1.38;;;25.30;60.40;;;;;;5054303;28;20386;-87
2022/12/20 00:46:07;;;;;;;3.50;1.20;;;25.10;58.30;;;;;;5072403;28;20424;-87
2022/12/20 00:48:34;;;;;;;3.60;1.10;;;24.90;59.00;;;;;;5072430;28;20382;-87
2022/12/20 00:51:09;;;;;;;7.22;1.45;;;24.10;59.70;;;;;;5054582;28;20406;-86
2022/12/20 00:53:37;;;;;;;4.20;1.40;;;23.80;59.80;;;;;;5071771;28;20918;-86
2022/12/20 00:56:06;;;;;;;3.47;1.13;;;23.70;60.90;;;;;;5059149;28;20382;-87
2022/12/20 00:58:37;;;;;;;7.70;1.77;;;23.80;60.70;;;;;;5072174;28;20382;-87
2022/12/20 01:01:06;;;;;;;4.80;1.90;;;24.00;60.70;;;;;;5066809;28;20413;-86
2022/12/20 01:03:34;;;;;;;6.40;1.73;;;24.10;60.30;;;;;;5090212;28;20437;-87
2022/12/20 01:06:02;;;;;;;10.73;2.05;;;24.30;59.70;;;;;;5091276;28;20483;-87
2022/12/20 01:08:30;;;;;;;7.30;1.73;;;24.10;60.60;;;;;;5071317;28;20377;-87
2022/12/20 01:11:10;;;;;;;7.07;1.60;;;24.20;60.80;;;;;;5091285;28;20361;-88
2022/12/20 01:13:41;;;;;;;6.82;1.65;;;24.10;60.00;;;;;;5090662;28;20384;-87
2022/12/20 01:16:13;;;;;;;7.13;2.47;;;24.20;60.00;;;;;;5090616;28;20759;-86
2022/12/20 01:18:40;;;;;;;9.15;2.42;;;24.50;60.70;;;;;;5089273;28;20380;-87
2022/12/20 01:21:13;;;;;;;22.27;7.05;;;24.80;59.60;;;;;;5090305;28;20372;-88
2022/12/20 01:23:40;;;;;;;21.33;10.18;;;25.20;59.30;;;;;;5089482;28;20419;-87
2022/12/20 01:26:11;;;;;;;17.85;7.45;;;25.60;57.70;;;;;;5090122;28;20356;-87
2022/12/20 01:28:40;;;;;;;18.55;9.07;;;25.60;58.60;;;;;;5066457;28;20408;-86
2022/12/20 01:31:08;;;;;;;20.83;8.88;;;25.80;57.70;;;;;;5090463;28;20447;-86
2022/12/20 01:33:36;;;;;;;11.40;2.80;;;25.90;57.10;;;;;;5090754;28;20406;-86
2022/12/20 01:36:10;;;;;;;9.23;2.42;;;25.50;57.10;;;;;;5089374;28;20451;-86
2022/12/20 01:38:37;;;;;;;17.85;2.38;;;24.70;58.70;;;;;;5090449;28;20426;-86
2022/12/20 01:41:10;;;;;;;9.05;1.70;;;24.30;59.60;;;;;;5088570;28;20447;-86
2022/12/20 01:43:48;;;;;;;8.57;2.72;;;24.20;59.60;;;;;;5090395;28;21044;-86
2022/12/20 01:46:15;;;;;;;9.63;1.98;;;24.10;60.10;;;;;;5088812;28;20375;-88
2022/12/20 01:48:46;;;;;;;11.00;1.80;;;23.80;60.30;;;;;;5090221;28;20376;-86
2022/12/20 01:51:14;;;;;;;7.97;1.90;;;23.70;60.90;;;;;;5088858;28;20743;-85
2022/12/20 01:53:41;;;;;;;17.30;2.20;;;23.70;61.00;;;;;;5089121;28;20463;-86
2022/12/20 01:56:10;;;;;;;7.63;1.55;;;23.30;61.70;;;;;;5089138;28;20410;-88
2022/12/20 01:58:39;;;;;;;9.07;2.00;;;23.00;62.20;;;;;;5087785;28;20379;-86
2022/12/20 02:01:06;;;;;;;6.88;1.45;;;23.30;62.00;;;;;;5070692;28;20846;-88
2022/12/20 02:03:33;;;;;;;7.37;1.63;;;23.20;61.40;;;;;;5070624;28;20410;-86
2022/12/20 02:06:17;;;;;;;14.98;4.80;;;23.10;62.10;;;;;;5070818;28;20469;-86
2022/12/20 02:08:46;;;;;;;14.38;6.40;;;23.10;62.30;;;;;;5083857;28;20905;-86
2022/12/20 02:11:47;;;;;;;8.30;3.58;;;23.30;62.20;;;;;;5070663;28;20413;-86
2022/12/20 02:14:52;;;;;;;6.80;2.50;;;23.40;61.80;;;;;;5059425;28;20378;-86
2022/12/20 02:17:46;;;;;;;10.05;3.40;;;23.70;61.00;;;;;;5057436;28;20447;-88
2022/12/20 02:20:28;;;;;;;17.42;9.43;;;23.80;60.90;;;;;;5055384;28;20448;-83
2022/12/20 02:23:13;;;;;;;12.02;6.75;;;23.50;60.80;;;;;;5070698;28;20380;-86
2022/12/20 02:26:08;;;;;;;35.05;22.33;;;23.20;62.10;;;;;;5070616;28;20799;-86
2022/12/20 02:28:40;;;;;;;25.87;14.90;;;23.10;61.80;;;;;;5057824;28;20850;-86
2022/12/20 02:31:16;;;;;;;17.63;6.90;;;23.00;62.50;;;;;;5071083;28;20416;-87
2022/12/20 02:33:47;;;;;;;10.23;2.38;;;23.20;62.20;;;;;;5071123;28;20585;-86
2022/12/20 02:36:18;;;;;;;6.00;1.45;;;23.70;61.10;;;;;;5070323;28;20380;-86
2022/12/20 02:38:45;;;;;;;5.38;1.40;;;24.30;59.50;;;;;;5070688;28;20393;-87
2022/12/20 02:41:22;;;;;;;5.13;1.50;;;24.90;59.40;;;;;;5052640;28;20754;-87
2022/12/20 02:46:41;;;;;;;7.83;1.90;;;25.40;58.40;;;;;;5059726;28;20464;-87
2022/12/20 02:49:17;;;;;;;6.90;1.30;;;25.50;56.90;;;;;;5070552;28;20472;-86
2022/12/20 02:51:47;;;;;;;5.22;1.23;;;25.60;56.80;;;;;;5070838;28;20366;-86
2022/12/20 02:54:15;;;;;;;5.43;1.30;;;25.60;56.20;;;;;;5071336;28;20415;-86
2022/12/20 02:57:02;;;;;;;5.13;1.20;;;25.80;56.60;;;;;;5071002;28;20934;-87
2022/12/20 02:59:50;;;;;;;5.33;1.50;;;26.10;56.70;;;;;;5058987;28;20374;-87
2022/12/20 03:02:18;;;;;;;4.70;1.15;;;26.60;55.90;;;;;;5087484;28;20365;-87
2022/12/20 03:04:48;;;;;;;5.90;1.45;;;26.90;55.70;;;;;;5089754;28;20426;-87
2022/12/20 03:07:15;;;;;;;5.18;1.23;;;26.90;55.20;;;;;;5071088;28;20390;-86
2022/12/20 03:09:44;;;;;;;5.88;1.42;;;26.90;54.30;;;;;;5090120;28;20460;-87
2022/12/20 03:12:12;;;;;;;3.85;1.30;;;26.90;54.40;;;;;;5070692;28;20462;-87
2022/12/20 03:14:40;;;;;;;3.83;1.10;;;26.70;54.40;;;;;;5089842;28;20375;-86
2022/12/20 03:17:07;;;;;;;3.90;1.30;;;27.30;53.90;;;;;;5089497;28;20453;-87
2022/12/20 03:19:35;;;;;;;4.05;1.08;;;27.40;54.40;;;;;;5058597;28;20398;-87
2022/12/20 03:22:02;;;;;;;7.10;1.33;;;28.80;54.00;;;;;;5069512;28;20370;-88
2022/12/20 03:24:31;;;;;;;5.32;1.50;;;28.10;52.30;;;;;;5082892;28;20380;-88
2022/12/20 03:26:58;;;;;;;5.15;1.30;;;28.30;53.00;;;;;;5063241;28;20368;-87
2022/12/20 03:29:25;;;;;;;4.38;1.42;;;28.70;51.20;;;;;;5075669;28;20420;-86
2022/12/20 03:31:52;;;;;;;5.03;1.40;;;29.20;50.40;;;;;;5069716;28;20385;-87
2022/12/20 03:34:19;;;;;;;6.45;1.48;;;29.30;50.50;;;;;;5070206;28;20378;-88
2022/12/20 03:36:46;;;;;;;5.50;1.40;;;29.30;49.90;;;;;;5089608;28;20474;-87
2022/12/20 03:39:13;;;;;;;4.82;1.40;;;29.00;50.70;;;;;;5089364;28;20724;-87
2022/12/20 03:41:40;;;;;;;5.38;1.52;;;28.70;51.40;;;;;;5089526;28;20369;-88
2022/12/20 03:44:07;;;;;;;5.45;1.63;;;28.10;53.10;;;;;;5087587;28;20383;-87
2022/12/20 03:46:35;;;;;;;5.70;1.50;;;28.40;54.40;;;;;;5059942;28;20384;-86
2022/12/20 03:49:02;;;;;;;5.60;1.60;;;28.30;53.70;;;;;;5091860;28;20384;-86
2022/12/20 03:51:29;;;;;;;4.43;1.50;;;27.00;53.00;;;;;;5075300;28;20754;-86
2022/12/20 03:53:56;;;;;;;5.25;1.60;;;28.40;53.90;;;;;;5094750;28;20848;-87
2022/12/20 03:56:23;;;;;;;7.38;1.58;;;29.60;52.90;;;;;;5094230;28;20458;-87
2022/12/20 03:58:50;;;;;;;4.43;1.50;;;29.50;51.80;;;;;;5091369;28;20385;-86
2022/12/20 04:01:26;;;;;;;5.35;1.52;;;29.20;52.20;;;;;;5073800;28;20374;-85
2022/12/20 04:03:54;;;;;;;6.15;1.60;;;28.60;53.10;;;;;;5073293;28;20400;-85
2022/12/20 04:06:22;;;;;;;3.90;1.30;;;28.30;53.70;;;;;;5073307;28;20370;-86
2022/12/20 04:08:50;;;;;;;4.55;1.42;;;28.00;53.50;;;;;;5073589;28;20413;-87
2022/12/20 04:11:16;;;;;;;5.57;1.52;;;27.60;53.90;;;;;;5073318;28;20445;-87
2022/12/20 04:13:52;;;;;;;5.20;1.20;;;28.00;53.80;;;;;;5054095;28;20762;-87
2022/12/20 04:16:22;;;;;;;6.05;1.50;;;28.30;53.60;;;;;;5073024;28;20460;-87
2022/12/20 04:18:49;;;;;;;5.05;1.30;;;28.30;53.60;;;;;;5073034;28;20386;-86
2022/12/20 04:21:20;;;;;;;4.03;1.25;;;27.80;52.70;;;;;;5055807;28;20378;-87
2022/12/20 04:23:47;;;;;;;4.68;1.40;;;27.10;53.80;;;;;;5068839;28;20888;-87
2022/12/20 04:26:14;;;;;;;4.07;1.40;;;26.40;55.20;;;;;;5078727;28;20378;-87
2022/12/20 04:28:41;;;;;;;5.18;1.40;;;25.90;56.80;;;;;;5053529;28;20398;-87
2022/12/20 04:31:09;;;;;;;5.13;1.30;;;25.60;56.90;;;;;;5060628;28;20384;-87
2022/12/20 04:33:36;;;;;;;4.13;1.17;;;24.90;58.00;;;;;;5073327;28;20425;-83
2022/12/20 04:36:03;;;;;;;5.07;1.30;;;24.30;59.30;;;;;;5074135;28;20775;-86
2022/12/20 04:38:30;;;;;;;7.43;1.60;;;23.80;60.50;;;;;;5073697;28;20394;-87
2022/12/20 04:40:58;;;;;;;4.07;1.30;;;23.40;61.70;;;;;;5070063;28;20392;-86
2022/12/20 04:43:25;;;;;;;5.03;1.60;;;23.20;62.30;;;;;;5073131;28;20385;-84
2022/12/20 04:45:55;;;;;;;5.80;1.40;;;22.90;62.80;;;;;;5071870;28;20382;-86
2022/12/20 04:48:25;;;;;;;6.13;1.42;;;23.00;62.80;;;;;;5073379;28;20753;-84
2022/12/20 04:50:54;;;;;;;5.28;1.30;;;23.10;62.90;;;;;;5071971;28;20414;-85
2022/12/20 04:56:07;;;;;;;4.60;1.30;;;23.40;62.00;;;;;;5072679;28;20396;-85
2022/12/20 04:58:34;;;;;;;5.03;1.30;;;23.50;61.50;;;;;;5073588;28;20414;-85
2022/12/20 05:01:01;;;;;;;4.78;1.25;;;24.00;61.20;;;;;;5071324;28;20424;-85
2022/12/20 05:03:28;;;;;;;3.72;1.25;;;25.60;59.90;;;;;;5070650;28;20508;-85
2022/12/20 05:05:55;;;;;;;3.72;1.20;;;26.50;57.40;;;;;;5072653;28;20389;-85
2022/12/20 05:08:23;;;;;;;3.93;1.10;;;27.30;55.50;;;;;;5072424;28;20398;-87
2022/12/20 05:10:50;;;;;;;3.88;1.15;;;27.40;54.70;;;;;;5060435;28;20436;-85
2022/12/20 05:13:17;;;;;;;3.05;1.10;;;27.30;54.10;;;;;;5072420;28;20408;-84
2022/12/20 05:15:44;;;;;;;4.53;1.40;;;27.00;55.20;;;;;;5071932;28;20402;-82
2022/12/20 05:18:12;;;;;;;3.53;1.17;;;27.10;55.20;;;;;;5069891;28;20397;-84
2022/12/20 05:20:39;;;;;;;4.47;1.10;;;26.70;55.00;;;;;;5071682;28;20378;-85
2022/12/20 05:28:38;;;;;;;2.85;1.02;;;28.50;53.80;;;;;;5078394;28;20384;-79
2022/12/20 05:31:05;;;;;;;3.95;1.27;;;29.20;52.40;;;;;;5077878;28;20385;-86
2022/12/20 05:33:32;;;;;;;4.28;1.33;;;29.80;51.30;;;;;;5075889;28;20388;-86
2022/12/20 05:35:59;;;;;;;4.07;1.10;;;30.20;51.30;;;;;;5077026;28;20370;-82
2022/12/20 05:38:26;;;;;;;5.30;1.33;;;30.70;49.90;;;;;;5071756;28;20406;-83
2022/12/20 05:40:53;;;;;;;3.97;1.27;;;30.60;49.80;;;;;;5072302;28;20422;-83
2022/12/20 05:43:21;;;;;;;5.13;1.40;;;30.40;49.80;;;;;;5070698;28;20942;-83
2022/12/20 05:45:52;;;;;;;4.65;1.40;;;29.00;50.90;;;;;;5057505;28;20425;-84
2022/12/20 05:48:20;;;;;;;4.30;1.30;;;27.50;53.60;;;;;;5080715;28;20887;-83
2022/12/20 05:50:47;;;;;;;3.83;1.27;;;27.10;55.20;;;;;;5072395;28;20772;-82
2022/12/20 05:53:16;;;;;;;5.32;1.30;;;27.30;55.40;;;;;;5078315;28;20401;-83
2022/12/20 05:55:50;;;;;;;4.32;1.30;;;27.60;54.60;;;;;;5082046;28;20862;-83
2022/12/20 05:58:18;;;;;;;4.45;1.35;;;27.40;54.10;;;;;;5081561;28;20412;-84
2022/12/20 06:00:46;;;;;;;4.60;1.30;;;27.00;55.40;;;;;;5077365;28;20430;-83
2022/12/20 06:03:16;;;;;;;3.87;1.37;;;27.10;55.40;;;;;;5070943;28;20392;-83
2022/12/20 06:05:43;;;;;;;2.77;1.17;;;27.70;54.50;;;;;;5058997;28;20382;-82
2022/12/20 06:08:11;;;;;;;5.25;1.20;;;28.40;53.60;;;;;;5079522;28;20781;-83
2022/12/20 06:10:40;;;;;;;4.23;1.10;;;29.00;52.60;;;;;;5079444;28;20388;-85
2022/12/20 06:13:09;;;;;;;3.88;1.13;;;29.30;52.10;;;;;;5059763;28;20467;-83
2022/12/20 06:15:37;;;;;;;5.05;1.00;;;29.30;51.80;;;;;;5068020;28;20800;-84
2022/12/20 06:18:04;;;;;;;4.60;2.00;;;29.40;52.00;;;;;;5069397;28;20410;-83
2022/12/20 06:20:33;;;;;;;5.40;1.98;;;29.50;51.70;;;;;;5050320;28;20760;-83
2022/12/20 06:23:00;;;;;;;3.73;1.33;;;28.80;52.00;;;;;;5065512;28;20400;-82
2022/12/20 06:25:28;;;;;;;4.43;2.30;;;28.00;53.10;;;;;;5070647;28;20386;-81
2022/12/20 06:27:55;;;;;;;4.05;1.38;;;27.00;54.90;;;;;;5084867;28;20411;-82
2022/12/20 06:30:23;;;;;;;4.03;1.20;;;26.40;56.70;;;;;;5090244;28;20474;-84
2022/12/20 06:32:50;;;;;;;3.90;1.30;;;25.90;57.90;;;;;;5088698;28;20384;-82
2022/12/20 06:35:17;;;;;;;4.95;1.30;;;25.40;59.20;;;;;;5086779;28;20804;-83
2022/12/20 06:37:44;;;;;;;3.60;1.10;;;25.40;60.40;;;;;;5084120;28;20408;-84
2022/12/20 06:40:12;;;;;;;3.17;1.10;;;26.20;58.90;;;;;;5090857;28;20368;-83
2022/12/20 06:42:39;;;;;;;3.03;1.20;;;27.00;58.00;;;;;;5089000;28;20373;-83
2022/12/20 06:45:07;;;;;;;4.53;1.20;;;27.90;55.80;;;;;;5089925;28;20771;-83
2022/12/20 06:47:34;;;;;;;5.13;1.27;;;28.10;55.10;;;;;;5089351;28;20860;-84
2022/12/20 06:50:01;;;;;;;3.28;1.25;;;27.30;55.60;;;;;;5082900;28;20468;-83
2022/12/20 06:52:28;;;;;;;4.17;1.13;;;26.30;56.60;;;;;;5082800;28;20392;-83
2022/12/20 06:54:55;;;;;;;2.33;1.10;;;25.50;58.10;;;;;;5081002;28;20512;-83
2022/12/20 06:57:22;;;;;;;4.03;1.05;;;24.80;59.70;;;;;;5082414;28;20483;-83
2022/12/20 06:59:49;;;;;;;4.10;1.27;;;24.70;60.50;;;;;;5058662;28;20389;-81
2022/12/20 07:02:16;;;;;;;3.00;1.10;;;24.70;59.70;;;;;;5062625;28;20527;-83
2022/12/20 07:04:44;;;;;;;4.13;1.10;;;24.30;60.00;;;;;;5065330;28;20437;-85
2022/12/20 07:07:13;;;;;;;2.90;1.30;;;24.10;60.70;;;;;;5069090;28;20896;-84
2022/12/20 07:09:41;;;;;;;2.83;1.10;;;23.90;61.90;;;;;;5063511;28;20437;-84
2022/12/20 07:12:11;;;;;;;4.15;1.15;;;23.70;61.80;;;;;;5041830;28;20425;-82
2022/12/20 07:14:38;;;;;;;3.23;0.97;;;23.40;61.40;;;;;;5064438;28;20381;-84
2022/12/20 07:17:06;;;;;;;3.83;0.93;;;23.20;62.70;;;;;;5061380;28;20487;-82
2022/12/20 07:19:35;;;;;;;1.83;0.82;;;23.20;62.80;;;;;;5063471;28;20382;-78
2022/12/20 07:22:02;;;;;;;2.13;0.90;;;23.50;59.30;;;;;;5057454;28;20475;-81
2022/12/20 07:24:29;;;;;;;4.10;1.02;;;23.70;60.10;;;;;;5073234;28;20383;-82
2022/12/20 07:26:57;;;;;;;2.10;0.80;;;23.60;59.90;;;;;;5065716;28;20438;-83
2022/12/20 07:29:24;;;;;;;1.60;0.68;;;23.90;59.30;;;;;;5066874;28;20392;-84
2022/12/20 07:31:52;;;;;;;2.47;0.70;;;24.40;58.00;;;;;;5068529;28;20756;-81
2022/12/20 07:34:19;;;;;;;2.78;0.90;;;24.70;57.70;;;;;;5071396;28;20394;-83
2022/12/20 07:36:47;;;;;;;3.80;0.98;;;24.80;57.70;;;;;;5069270;28;20493;-84
2022/12/20 07:39:13;;;;;;;1.80;0.85;;;25.30;57.80;;;;;;5060891;28;20563;-84
2022/12/20 07:41:41;;;;;;;3.10;0.80;;;25.50;57.10;;;;;;5069248;28;20911;-84
2022/12/20 07:44:08;;;;;;;2.70;0.90;;;25.50;57.00;;;;;;5074795;28;20413;-83
2022/12/20 07:46:35;;;;;;;2.15;0.90;;;25.60;56.30;;;;;;5065126;28;20390;-83
2022/12/20 07:49:02;;;;;;;3.35;0.98;;;25.50;56.30;;;;;;5067398;28;20427;-83
2022/12/20 07:51:37;;;;;;;2.00;1.00;;;25.40;56.60;;;;;;5073173;28;20524;-83
2022/12/20 07:54:10;;;;;;;1.80;0.93;;;25.30;57.60;;;;;;5074922;28;20723;-82
2022/12/20 07:56:42;;;;;;;4.20;0.93;;;24.60;58.40;;;;;;5073174;28;20478;-83
2022/12/20 07:59:12;;;;;;;2.78;0.90;;;23.80;60.50;;;;;;5064764;28;20397;-83
2022/12/20 08:01:41;;;;;;;3.97;0.90;;;23.00;61.70;;;;;;5073757;28;20731;-83
2022/12/20 08:04:16;;;;;;;2.53;0.90;;;22.80;62.40;;;;;;5064113;28;20516;-84
2022/12/20 08:06:43;;;;;;;3.40;0.82;;;22.80;62.70;;;;;;5062586;28;20423;-82
2022/12/20 08:09:12;;;;;;;2.25;0.70;;;23.00;61.70;;;;;;5068582;28;20389;-83
2022/12/20 08:11:43;;;;;;;3.42;0.90;;;23.00;59.90;;;;;;5069697;28;20382;-84
2022/12/20 08:14:10;;;;;;;3.72;0.80;;;23.00;60.00;;;;;;5081333;28;20445;-83
2022/12/20 08:16:37;;;;;;;1.88;0.70;;;23.00;59.90;;;;;;5082394;28;20403;-83
2022/12/20 08:19:04;;;;;;;2.58;0.75;;;23.10;59.40;;;;;;5071472;28;20471;-84
2022/12/20 08:21:31;;;;;;;2.03;0.70;;;23.20;59.50;;;;;;5073726;28;20911;-82
2022/12/20 08:23:58;;;;;;;2.55;0.65;;;23.00;59.80;;;;;;5091219;28;20441;-82
2022/12/20 08:26:26;;;;;;;2.30;0.80;;;23.00;60.20;;;;;;5072740;28;20404;-83
2022/12/20 08:28:54;;;;;;;2.65;0.60;;;22.90;60.40;;;;;;5082649;28;20784;-83
2022/12/20 08:31:22;;;;;;;1.93;0.70;;;22.60;60.90;;;;;;5047277;28;20385;-83
2022/12/20 08:33:49;;;;;;;3.08;0.75;;;22.20;61.30;;;;;;5072199;28;20791;-83
2022/12/20 08:36:16;;;;;;;1.48;0.70;;;21.90;61.70;;;;;;5069569;28;20382;-83
2022/12/20 08:38:43;;;;;;;2.60;1.35;;;21.50;61.50;;;;;;5070432;28;20386;-83
2022/12/20 08:41:12;;;;;;;1.80;0.70;;;21.20;62.00;;;;;;5060019;28;20781;-85
2022/12/20 08:46:54;;;;;;;1.48;0.60;;;20.70;62.20;;;;;;5065746;28;20393;-83
2022/12/20 08:49:21;;;;;;;2.53;0.70;;;20.50;62.40;;;;;;5081190;28;20778;-83
2022/12/20 08:51:48;;;;;;;3.08;0.70;;;20.40;63.40;;;;;;5082008;28;20393;-83
2022/12/20 08:54:16;;;;;;;2.13;0.73;;;20.30;63.00;;;;;;5071506;28;20377;-82
2022/12/20 08:56:43;;;;;;;1.73;0.50;;;20.20;63.00;;;;;;5091973;28;20418;-85
2022/12/20 08:59:10;;;;;;;1.87;0.80;;;20.10;63.00;;;;;;5086238;28;20447;-83
2022/12/20 09:01:37;;;;;;;1.67;0.68;;;20.00;63.20;;;;;;5072162;28;21250;-81
2022/12/20 09:04:04;;;;;;;1.88;0.57;;;19.80;63.80;;;;;;5063447;28;20385;-80
2022/12/20 09:06:34;;;;;;;1.10;0.60;;;19.60;64.20;;;;;;5065713;28;20947;-85
2022/12/20 09:09:01;;;;;;;1.70;0.73;;;19.50;64.90;;;;;;5068340;28;20393;-81
2022/12/20 09:11:29;;;;;;;2.00;0.77;;;19.40;65.30;;;;;;5063469;28;20419;-83
2022/12/20 09:13:57;;;;;;;2.45;0.80;;;19.30;65.20;;;;;;5069704;28;20766;-83
2022/12/20 09:16:32;;;;;;;2.13;0.70;;;19.20;66.00;;;;;;5061170;28;20390;-84
2022/12/20 09:19:01;;;;;;;1.70;0.60;;;19.00;66.70;;;;;;5064233;28;20479;-83
2022/12/20 09:21:28;;;;;;;1.40;0.50;;;18.90;66.80;;;;;;5064856;28;20384;-83
2022/12/20 09:23:56;;;;;;;1.92;0.70;;;18.80;66.70;;;;;;5042290;28;20431;-84
2022/12/20 09:26:24;;;;;;;2.13;0.70;;;18.70;67.50;;;;;;5068504;28;20436;-83
2022/12/20 09:28:51;;;;;;;1.33;0.60;;;18.60;67.80;;;;;;5056493;28;20413;-83
2022/12/20 09:31:21;;;;;;;2.63;0.60;;;18.50;68.60;;;;;;5081109;28;21712;-82
2022/12/20 09:33:48;;;;;;;2.17;0.60;;;18.30;69.20;;;;;;5065539;28;20800;-84
2022/12/20 09:36:17;;;;;;;3.00;0.70;;;18.10;69.80;;;;;;5051391;28;20769;-83
2022/12/20 09:38:45;;;;;;;2.30;0.63;;;18.10;70.90;;;;;;5071650;28;20873;-83
2022/12/20 09:41:25;;;;;;;3.53;0.73;;;18.00;71.40;;;;;;5075462;28;20387;-83
2022/12/20 09:43:52;;;;;;;2.95;0.70;;;17.90;71.90;;;;;;5064129;28;20904;-83
2022/12/20 09:46:20;;;;;;;1.73;0.60;;;17.90;72.50;;;;;;5091712;28;20380;-83
2022/12/20 09:48:47;;;;;;;2.10;0.80;;;17.90;73.30;;;;;;5091170;28;20468;-83
2022/12/20 09:51:32;;;;;;;2.53;0.80;;;17.80;73.80;;;;;;5066172;28;20465;-83
2022/12/20 09:54:23;;;;;;;2.90;0.70;;;17.80;74.20;;;;;;5080442;28;20395;-83
2022/12/20 09:57:23;;;;;;;4.03;0.90;;;17.70;74.90;;;;;;5087769;28;20399;-81
2022/12/20 09:59:50;;;;;;;2.77;0.60;;;17.70;75.50;;;;;;5063349;28;20414;-82
2022/12/20 10:02:35;;;;;;;1.52;0.70;;;17.70;76.60;;;;;;5083659;28;20376;-82
2022/12/20 10:05:02;;;;;;;2.72;0.80;;;17.70;77.20;;;;;;5059262;28;20382;-83
2022/12/20 10:07:31;;;;;;;3.92;0.80;;;17.60;77.70;;;;;;5070928;28;20375;-83
2022/12/20 10:10:33;;;;;;;2.42;0.80;;;17.50;78.90;;;;;;5070550;28;20735;-82
2022/12/20 10:13:10;;;;;;;2.60;0.80;;;17.50;79.60;;;;;;5051216;28;20382;-84
2022/12/20 10:15:51;;;;;;;5.30;0.90;;;17.40;80.30;;;;;;5066343;28;20977;-85
2022/12/20 10:18:42;;;;;;;3.78;0.90;;;17.40;80.80;;;;;;5062834;28;20439;-84
2022/12/20 10:21:15;;;;;;;3.65;0.82;;;17.40;81.10;;;;;;5062637;28;20420;-83
2022/12/20 10:24:09;;;;;;;3.67;0.95;;;17.40;81.70;;;;;;5059263;28;20378;-83
2022/12/20 10:26:36;;;;;;;4.15;0.80;;;17.40;82.20;;;;;;5065255;28;20754;-83
2022/12/20 10:29:03;;;;;;;3.53;0.70;;;17.40;82.90;;;;;;5064329;28;20924;-82
2022/12/20 10:31:30;;;;;;;3.88;0.90;;;17.40;83.30;;;;;;5066419;28;20799;-82
2022/12/20 10:33:57;;;;;;;5.40;0.80;;;17.40;83.80;;;;;;5060313;28;20423;-84
2022/12/20 10:36:31;;;;;;;3.83;0.90;;;17.30;84.10;;;;;;5056875;28;20913;-83
2022/12/20 10:39:00;;;;;;;3.33;0.88;;;17.20;84.90;;;;;;5060903;28;20394;-83
2022/12/20 10:41:40;;;;;;;3.47;0.80;;;17.10;85.20;;;;;;5060794;28;20388;-82
2022/12/20 10:44:19;;;;;;;3.60;1.00;;;17.10;86.00;;;;;;5070170;28;20417;-83
2022/12/20 10:46:58;;;;;;;4.33;1.00;;;16.90;86.40;;;;;;5062223;28;20927;-82
2022/12/20 10:49:36;;;;;;;3.22;0.82;;;16.90;87.40;;;;;;5063027;28;20815;-83
2022/12/20 10:52:09;;;;;;;2.15;0.80;;;16.80;88.10;;;;;;5040203;28;20399;-83
2022/12/20 10:54:41;;;;;;;3.50;0.90;;;16.80;88.90;;;;;;5059599;28;20996;-83
2022/12/20 10:57:40;;;;;;;2.92;0.88;;;16.70;89.60;;;;;;5068084;28;20397;-83
2022/12/20 11:00:29;;;;;;;3.72;1.00;;;16.60;90.10;;;;;;5057699;28;20470;-83
2022/12/20 11:03:18;;;;;;;4.80;0.90;;;16.60;90.60;;;;;;5056042;28;20821;-82
2022/12/20 11:06:02;;;;;;;4.90;1.10;;;16.60;90.90;;;;;;5062914;28;20381;-84
2022/12/20 11:08:32;;;;;;;18.60;1.70;;;16.50;91.40;;;;;;5071412;28;20390;-82
2022/12/20 11:11:23;;;;;;;6.97;0.90;;;16.40;91.70;;;;;;5071403;28;20423;-84
2022/12/20 11:13:52;;;;;;;2.60;0.82;;;16.40;92.30;;;;;;5070924;28;20386;-85
2022/12/20 11:16:39;;;;;;;4.10;0.95;;;16.30;92.70;;;;;;5068694;28;20421;-84
2022/12/20 11:19:11;;;;;;;3.60;0.90;;;16.30;93.20;;;;;;5060592;28;20941;-83
2022/12/20 11:21:43;;;;;;;3.95;0.90;;;16.20;93.70;;;;;;5069074;28;20866;-84
2022/12/20 11:24:31;;;;;;;5.05;1.02;;;16.20;94.00;;;;;;5067601;28;20385;-83
2022/12/20 11:27:05;;;;;;;2.58;0.95;;;16.10;94.50;;;;;;5083217;28;20380;-83
2022/12/20 11:29:51;;;;;;;3.10;1.00;;;16.10;94.90;;;;;;5067803;28;20550;-84
2022/12/20 11:32:20;;;;;;;4.40;0.93;;;16.00;95.40;;;;;;5064478;28;20544;-82
2022/12/20 11:35:25;;;;;;;4.07;1.20;;;16.00;95.90;;;;;;5074275;28;20380;-83
2022/12/20 11:38:09;;;;;;;11.13;1.88;;;15.90;96.70;;;;;;5056039;28;20453;-84
2022/12/20 11:41:09;;;;;;;46.72;3.90;;;15.90;97.30;;;;;;5069007;28;20380;-86
2022/12/20 11:43:45;;;;;;;19.98;2.03;;;15.80;97.70;;;;;;5027637;28;20447;-84
2022/12/20 11:46:45;;;;;;;23.77;2.60;;;15.70;98.10;;;;;;5025237;28;20809;-84
2022/12/20 11:49:27;;;;;;;31.00;3.10;;;15.70;98.70;;;;;;5027948;28;20393;-83
2022/12/20 11:52:01;;;;;;;41.13;3.97;;;15.50;99.10;;;;;;5028778;28;20758;-84
2022/12/20 11:54:52;;;;;;;33.35;3.80;;;15.50;99.70;;;;;;5011404;28;20388;-82
2022/12/20 11:57:27;;;;;;;35.67;3.63;;;15.50;99.90;;;;;;5026322;28;20409;-81
2022/12/20 12:00:05;;;;;;;44.22;5.40;;;15.40;99.90;;;;;;5017912;28;20376;-82
2022/12/20 12:02:37;;;;;;;34.10;5.18;;;15.40;99.90;;;;;;5021439;28;20401;-83
2022/12/20 12:05:13;;;;;;;34.63;5.82;;;15.30;99.90;;;;;;5023612;28;20781;-81
2022/12/20 12:07:43;;;;;;;32.00;5.13;;;15.30;99.90;;;;;;5026678;28;20445;-84
2022/12/20 12:10:22;;;;;;;20.92;4.95;;;15.30;99.90;;;;;;5029959;28;20381;-83
2022/12/20 12:12:58;;;;;;;18.67;4.43;;;15.20;99.90;;;;;;5030232;28;20442;-84
2022/12/20 12:15:48;;;;;;;16.75;3.58;;;15.10;99.90;;;;;;5021101;28;20399;-81
2022/12/20 12:18:23;;;;;;;15.05;2.92;;;15.00;99.90;;;;;;5030403;28;20401;-83
2022/12/20 12:21:13;;;;;;;11.95;2.80;;;15.00;99.90;;;;;;5055825;28;20374;-84
2022/12/20 12:24:01;;;;;;;14.20;2.67;;;14.80;99.90;;;;;;5067067;28;20394;-84
2022/12/20 12:26:31;;;;;;;13.47;2.60;;;14.70;99.90;;;;;;5053835;28;20382;-83
2022/12/20 12:29:14;;;;;;;10.00;2.27;;;14.60;99.90;;;;;;5080874;28;20379;-83
2022/12/20 12:31:48;;;;;;;10.23;2.25;;;14.60;99.90;;;;;;5072353;28;20406;-81
2022/12/20 12:34:32;;;;;;;4.20;1.50;;;14.50;99.90;;;;;;5063092;28;20394;-83
2022/12/20 12:37:27;;;;;;;5.88;1.70;;;14.50;99.90;;;;;;5054361;28;20473;-84
2022/12/20 12:40:15;;;;;;;5.40;1.27;;;14.50;99.90;;;;;;5052748;28;20833;-84
2022/12/20 12:43:10;;;;;;;3.78;1.40;;;14.50;99.90;;;;;;5071305;28;20381;-83
2022/12/20 12:45:43;;;;;;;7.88;1.70;;;14.60;99.90;;;;;;5067660;28;20397;-84
2022/12/20 12:48:35;;;;;;;12.38;2.10;;;14.60;99.90;;;;;;5068681;28;20742;-83
2022/12/20 12:51:03;;;;;;;7.83;1.63;;;14.70;99.90;;;;;;5069335;28;20920;-83
2022/12/20 12:53:36;;;;;;;7.30;1.45;;;14.70;99.90;;;;;;5070727;28;20435;-83
2022/12/20 12:56:25;;;;;;;6.93;1.70;;;14.70;99.90;;;;;;5062264;28;20439;-84
2022/12/20 12:59:10;;;;;;;11.07;2.00;;;14.80;99.90;;;;;;5084862;28;21032;-83
2022/12/20 13:01:52;;;;;;;12.70;2.20;;;14.80;99.90;;;;;;5080087;28;20395;-83
2022/12/20 13:04:19;;;;;;;9.82;2.22;;;14.90;99.90;;;;;;5068638;28;20410;-83
2022/12/20 13:06:57;;;;;;;11.77;2.20;;;14.90;99.90;;;;;;5085516;28;20372;-83
2022/12/20 13:09:26;;;;;;;9.68;1.75;;;14.90;99.90;;;;;;5086511;28;20381;-83
2022/12/20 13:11:55;;;;;;;8.98;1.88;;;14.90;99.90;;;;;;5079055;28;20477;-84
2022/12/20 13:14:26;;;;;;;7.10;1.60;;;14.90;99.90;;;;;;5073293;28;20461;-83
2022/12/20 13:17:05;;;;;;;32.95;3.67;;;14.80;99.90;;;;;;5063746;28;20877;-83
2022/12/20 13:19:35;;;;;;;36.40;3.80;;;14.80;99.90;;;;;;5067112;28;20887;-84
2022/12/20 13:22:17;;;;;;;23.63;2.70;;;14.90;99.90;;;;;;5059580;28;20420;-83
2022/12/20 13:24:49;;;;;;;13.10;1.88;;;14.90;99.90;;;;;;5068206;28;20373;-84